Time;durP1;ratioP1;P1;durP2;ratioP2;P2;SDS_P1;SDS_P2;PMS_P1;PMS_P2;Temp;Humidity;BMP_temperature;BMP_pressure;BME280_temperature;BME280_humidity;BME280_pressure;Samples;Min_cycle;Max_cycle;Signal;HPM_P1;HPM_P2
2023/10/04 00:01:43;;;;;;;5.32;1.33;;;13.60;99.90;;;;;;5074004;28;20036;-55
2023/10/04 00:04:10;;;;;;;5.20;1.10;;;13.60;99.90;;;;;;5074199;28;20055;-52
2023/10/04 00:06:36;;;;;;;4.97;1.23;;;13.60;99.90;;;;;;5074400;28;20033;-54
2023/10/04 00:09:05;;;;;;;9.65;1.70;;;13.60;99.90;;;;;;5073774;28;20090;-53
2023/10/04 00:11:31;;;;;;;3.88;1.23;;;13.60;99.90;;;;;;5074042;28;20034;-53
2023/10/04 00:13:57;;;;;;;3.45;1.13;;;13.60;99.90;;;;;;5074109;28;20115;-51
2023/10/04 00:16:23;;;;;;;3.63;1.15;;;13.50;99.90;;;;;;5074306;28;20032;-54
2023/10/04 00:18:49;;;;;;;5.97;1.30;;;13.50;99.90;;;;;;5073785;28;20393;-54
2023/10/04 00:21:15;;;;;;;3.88;1.27;;;13.50;99.90;;;;;;5073868;28;20381;-53
2023/10/04 00:23:41;;;;;;;6.07;1.33;;;13.50;99.90;;;;;;5073665;28;20028;-54
2023/10/04 00:26:07;;;;;;;7.05;1.50;;;13.50;99.90;;;;;;5073802;28;20473;-54
2023/10/04 00:28:38;;;;;;;4.72;1.40;;;13.50;99.90;;;;;;5055441;28;20054;-55
2023/10/04 00:31:05;;;;;;;3.80;1.10;;;13.50;99.90;;;;;;5055568;28;20024;-51
2023/10/04 00:33:31;;;;;;;3.83;1.20;;;13.50;99.90;;;;;;5055919;28;20159;-53
2023/10/04 00:36:03;;;;;;;4.57;1.38;;;13.40;99.90;;;;;;5073793;28;20074;-54
2023/10/04 00:38:30;;;;;;;4.45;1.20;;;13.40;99.90;;;;;;5073421;28;20029;-53
2023/10/04 00:40:56;;;;;;;6.25;1.38;;;13.50;99.90;;;;;;5073646;28;20045;-51
2023/10/04 00:43:22;;;;;;;4.57;1.40;;;13.40;99.90;;;;;;5055527;28;20040;-52
2023/10/04 00:45:49;;;;;;;5.03;1.33;;;13.40;99.90;;;;;;5055726;28;20380;-54
2023/10/04 00:48:23;;;;;;;3.78;1.40;;;13.50;99.90;;;;;;5073267;28;20020;-54
2023/10/04 00:50:49;;;;;;;6.18;1.33;;;13.40;99.90;;;;;;5073291;28;20469;-52
2023/10/04 00:53:22;;;;;;;3.90;1.00;;;13.40;99.90;;;;;;5054275;28;20051;-54
2023/10/04 00:55:49;;;;;;;5.85;1.65;;;13.30;99.90;;;;;;5055422;28;20039;-51
2023/10/04 00:58:19;;;;;;;4.15;1.48;;;13.20;99.90;;;;;;5073153;28;20089;-52
2023/10/04 01:00:47;;;;;;;3.75;1.52;;;13.20;99.90;;;;;;5072989;28;20044;-54
2023/10/04 01:03:19;;;;;;;3.22;1.08;;;13.20;99.90;;;;;;5072720;28;20439;-53
2023/10/04 01:05:51;;;;;;;5.18;1.40;;;13.20;99.90;;;;;;5055135;28;20025;-52
2023/10/04 01:08:23;;;;;;;2.65;1.25;;;13.10;99.90;;;;;;5054722;28;20033;-52
2023/10/04 01:10:50;;;;;;;5.57;1.27;;;13.10;99.90;;;;;;5054801;28;20081;-52
2023/10/04 01:13:20;;;;;;;5.55;1.40;;;13.10;99.90;;;;;;5054611;28;20032;-55
2023/10/04 01:15:49;;;;;;;3.17;1.13;;;13.10;99.90;;;;;;5054480;28;20405;-53
2023/10/04 01:18:16;;;;;;;4.68;1.20;;;13.10;99.90;;;;;;5054353;28;20093;-55
2023/10/04 01:20:42;;;;;;;4.53;1.40;;;13.20;99.90;;;;;;5054271;28;20481;-51
2023/10/04 01:23:12;;;;;;;4.45;1.23;;;13.30;99.90;;;;;;5072193;28;20036;-51
2023/10/04 01:25:46;;;;;;;3.90;0.90;;;13.20;99.90;;;;;;5054289;28;20040;-51
2023/10/04 01:28:17;;;;;;;10.20;1.70;;;13.20;99.90;;;;;;5054150;28;20505;-53
2023/10/04 01:30:45;;;;;;;8.48;1.60;;;13.30;99.90;;;;;;5072177;28;20021;-54
2023/10/04 01:33:18;;;;;;;2.53;0.93;;;13.30;99.90;;;;;;5053905;28;20419;-55
2023/10/04 01:35:46;;;;;;;5.95;1.52;;;13.30;99.90;;;;;;5072130;28;20032;-55
2023/10/04 01:38:13;;;;;;;4.13;1.15;;;13.20;99.90;;;;;;5053983;28;20036;-53
2023/10/04 01:40:39;;;;;;;6.28;1.33;;;13.20;99.90;;;;;;5053628;28;20032;-52
2023/10/04 01:43:15;;;;;;;8.25;2.05;;;13.10;99.90;;;;;;5071809;28;20390;-52
2023/10/04 01:45:43;;;;;;;5.30;1.10;;;13.10;99.90;;;;;;5053994;28;20055;-54
2023/10/04 01:48:09;;;;;;;4.00;1.10;;;13.10;99.90;;;;;;5071934;28;20627;-53
2023/10/04 01:50:35;;;;;;;6.70;1.67;;;13.10;99.90;;;;;;5071728;28;20048;-55
2023/10/04 01:53:01;;;;;;;3.60;1.13;;;13.10;99.90;;;;;;5053586;28;20059;-52
2023/10/04 01:55:26;;;;;;;3.67;1.30;;;13.10;99.90;;;;;;5053679;28;20477;-52
2023/10/04 01:57:52;;;;;;;3.92;1.15;;;13.10;99.90;;;;;;5071683;28;20040;-53
2023/10/04 02:00:20;;;;;;;6.38;1.17;;;13.10;99.90;;;;;;5053442;28;20036;-53
2023/10/04 02:02:47;;;;;;;7.33;1.33;;;13.20;99.90;;;;;;5071457;28;20392;-51
2023/10/04 02:05:18;;;;;;;5.80;1.00;;;13.10;99.90;;;;;;5053533;28;20461;-54
2023/10/04 02:07:44;;;;;;;2.90;1.13;;;13.10;99.90;;;;;;5071943;28;20025;-52
2023/10/04 02:10:11;;;;;;;6.72;1.65;;;13.20;99.90;;;;;;5054019;28;20123;-53
2023/10/04 02:12:37;;;;;;;2.53;1.08;;;13.20;99.90;;;;;;5071506;28;20036;-55
2023/10/04 02:15:06;;;;;;;6.18;1.50;;;13.20;99.90;;;;;;5053747;28;20499;-51
2023/10/04 02:17:31;;;;;;;6.07;1.33;;;13.20;99.90;;;;;;5071772;28;20055;-51
2023/10/04 02:19:58;;;;;;;5.95;1.65;;;13.10;99.90;;;;;;5053231;28;20052;-52
2023/10/04 02:22:24;;;;;;;5.97;1.85;;;13.10;99.90;;;;;;5053213;28;20064;-54
2023/10/04 02:24:50;;;;;;;5.82;1.30;;;13.10;99.90;;;;;;5053574;28;20408;-54
2023/10/04 02:27:17;;;;;;;3.30;1.02;;;13.20;99.90;;;;;;5053292;28;20077;-51
2023/10/04 02:29:45;;;;;;;4.85;1.23;;;13.10;99.90;;;;;;5071106;28;20051;-54
2023/10/04 02:32:10;;;;;;;6.63;1.85;;;13.10;99.90;;;;;;5053069;28;20028;-53
2023/10/04 02:34:38;;;;;;;3.55;1.08;;;13.20;99.90;;;;;;5052986;28;20365;-54
2023/10/04 02:37:07;;;;;;;7.88;2.03;;;13.20;99.90;;;;;;5053036;28;20029;-52
2023/10/04 02:39:37;;;;;;;5.68;1.27;;;13.30;99.90;;;;;;5052770;28;20074;-51
2023/10/04 02:42:12;;;;;;;4.38;1.20;;;13.30;99.90;;;;;;5052667;28;20032;-50
2023/10/04 02:44:40;;;;;;;4.35;1.35;;;13.40;99.90;;;;;;5053109;28;20051;-51
2023/10/04 02:47:07;;;;;;;5.10;1.48;;;13.40;99.90;;;;;;5067269;28;20020;-54
2023/10/04 02:49:35;;;;;;;7.82;1.20;;;13.30;99.90;;;;;;5072019;28;20028;-53
2023/10/04 02:52:00;;;;;;;4.70;1.50;;;13.30;99.90;;;;;;5090968;28;20618;-54
2023/10/04 02:54:28;;;;;;;6.85;1.60;;;13.30;99.90;;;;;;5073060;28;20096;-52
2023/10/04 02:56:56;;;;;;;5.90;1.52;;;13.30;99.90;;;;;;5072892;28;20024;-52
2023/10/04 02:59:24;;;;;;;4.47;1.52;;;13.30;99.90;;;;;;5072703;28;20113;-54
2023/10/04 03:01:50;;;;;;;7.05;1.25;;;13.30;99.90;;;;;;5072909;28;20043;-54
2023/10/04 03:04:16;;;;;;;3.63;1.48;;;13.30;99.90;;;;;;5072780;28;20036;-54
2023/10/04 03:06:42;;;;;;;4.60;1.30;;;13.40;99.90;;;;;;5072916;28;20047;-54
2023/10/04 03:09:09;;;;;;;7.70;1.52;;;13.30;99.90;;;;;;5072852;28;20032;-54
2023/10/04 03:11:37;;;;;;;5.30;1.45;;;13.40;99.90;;;;;;5072559;28;20028;-54
2023/10/04 03:14:06;;;;;;;4.63;1.73;;;13.40;99.90;;;;;;5072828;28;20093;-52
2023/10/04 03:16:36;;;;;;;5.22;1.13;;;13.40;99.90;;;;;;5075859;28;20024;-54
2023/10/04 03:19:03;;;;;;;6.90;1.70;;;13.40;99.90;;;;;;5076372;28;20488;-54
2023/10/04 03:21:37;;;;;;;6.35;1.33;;;13.40;99.90;;;;;;5094732;28;20047;-53
2023/10/04 03:24:10;;;;;;;4.75;1.20;;;13.40;99.90;;;;;;5076751;28;20503;-52
2023/10/04 03:26:37;;;;;;;4.32;1.42;;;13.30;99.90;;;;;;5076946;28;20388;-52
2023/10/04 03:29:06;;;;;;;5.10;1.45;;;13.30;99.90;;;;;;5076177;28;20078;-53
2023/10/04 03:31:33;;;;;;;5.63;1.35;;;13.40;99.90;;;;;;5076383;28;20077;-51
2023/10/04 03:34:00;;;;;;;4.68;1.67;;;13.40;99.90;;;;;;5074930;28;20032;-50
2023/10/04 03:36:29;;;;;;;5.80;1.40;;;13.40;99.90;;;;;;5073165;28;20522;-50
2023/10/04 03:38:58;;;;;;;4.10;1.40;;;13.40;99.90;;;;;;5068475;28;20495;-50
2023/10/04 03:41:24;;;;;;;5.38;1.25;;;13.40;99.90;;;;;;5066884;28;20066;-51
2023/10/04 03:43:54;;;;;;;5.82;1.50;;;13.40;99.90;;;;;;5064808;28;20053;-50
2023/10/04 03:46:21;;;;;;;6.38;1.50;;;13.50;99.90;;;;;;5068188;28;20020;-53
2023/10/04 03:48:52;;;;;;;3.88;1.08;;;13.50;99.90;;;;;;5061188;28;20040;-50
2023/10/04 03:51:22;;;;;;;7.10;1.65;;;13.50;99.90;;;;;;5057257;28;20031;-51
2023/10/04 03:53:53;;;;;;;6.70;1.48;;;13.50;99.90;;;;;;5070852;28;20058;-50
2023/10/04 03:56:21;;;;;;;2.13;1.08;;;13.50;99.90;;;;;;5059846;28;20055;-49
2023/10/04 03:58:48;;;;;;;4.50;1.30;;;13.40;99.90;;;;;;5066536;28;20025;-49
2023/10/04 04:01:14;;;;;;;10.77;1.85;;;13.50;99.90;;;;;;5064585;28;20032;-50
2023/10/04 04:03:40;;;;;;;5.72;1.85;;;13.40;99.90;;;;;;5059171;28;20676;-49
2023/10/04 04:06:07;;;;;;;3.13;0.93;;;13.50;99.90;;;;;;5082317;28;20393;-50
2023/10/04 04:08:33;;;;;;;3.63;1.38;;;13.50;99.90;;;;;;5087064;28;20023;-50
2023/10/04 04:11:01;;;;;;;6.00;1.17;;;13.50;99.90;;;;;;5067898;28;20062;-52
2023/10/04 04:13:27;;;;;;;6.47;1.40;;;13.40;99.90;;;;;;5063930;28;20024;-51
2023/10/04 04:15:52;;;;;;;7.45;1.60;;;13.40;99.90;;;;;;5066855;28;20388;-54
2023/10/04 04:18:22;;;;;;;5.05;1.55;;;13.30;99.90;;;;;;5056708;28;20509;-50
2023/10/04 04:20:53;;;;;;;3.35;1.05;;;13.40;99.90;;;;;;5090420;28;20067;-51
2023/10/04 04:23:21;;;;;;;6.35;1.40;;;13.30;99.90;;;;;;5064211;28;20473;-50
2023/10/04 04:25:48;;;;;;;6.65;1.60;;;13.30;99.90;;;;;;5061014;28;20028;-51
2023/10/04 04:28:17;;;;;;;8.20;1.45;;;13.30;99.90;;;;;;5060219;28;20094;-50
2023/10/04 04:30:43;;;;;;;5.82;1.33;;;13.30;99.90;;;;;;5059316;28;20425;-53
2023/10/04 04:33:10;;;;;;;4.10;1.33;;;13.20;99.90;;;;;;5065667;28;20032;-53
2023/10/04 04:35:49;;;;;;;4.45;1.05;;;13.20;99.90;;;;;;5065555;28;20028;-50
2023/10/04 04:38:21;;;;;;;5.10;1.52;;;13.20;99.90;;;;;;5068274;28;20032;-52
2023/10/04 04:40:48;;;;;;;;;;;13.10;99.90;;;;;;5048102;28;20028;-50
2023/10/04 04:45:53;;;;;;;8.23;1.73;;;13.10;99.90;;;;;;5069209;28;20433;-52
2023/10/04 04:48:29;;;;;;;4.30;1.10;;;13.00;99.90;;;;;;5066632;28;20020;-51
2023/10/04 04:51:02;;;;;;;4.07;1.38;;;13.00;99.90;;;;;;5068942;28;20020;-51
2023/10/04 04:53:28;;;;;;;6.75;1.60;;;13.00;99.90;;;;;;5064447;28;20024;-51
2023/10/04 04:55:55;;;;;;;6.82;1.52;;;13.00;99.90;;;;;;5059937;28;20023;-51
2023/10/04 04:58:22;;;;;;;5.00;1.42;;;12.90;99.90;;;;;;5057348;28;20028;-54
2023/10/04 05:01:00;;;;;;;8.45;1.45;;;12.90;99.90;;;;;;5047583;28;20028;-50
2023/10/04 05:03:26;;;;;;;4.38;1.35;;;12.90;99.90;;;;;;5068394;28;20021;-50
2023/10/04 05:05:55;;;;;;;3.00;0.98;;;12.90;99.90;;;;;;5079204;28;20021;-50
2023/10/04 05:08:21;;;;;;;6.25;1.35;;;12.80;99.90;;;;;;5082934;28;20028;-50
2023/10/04 05:10:49;;;;;;;5.20;1.52;;;12.80;99.90;;;;;;5082847;28;20016;-53
2023/10/04 05:13:17;;;;;;;7.60;1.58;;;12.80;99.90;;;;;;5086038;28;20028;-52
2023/10/04 05:15:42;;;;;;;10.00;3.58;;;12.80;99.90;;;;;;5082770;28;20128;-51
2023/10/04 05:18:15;;;;;;;7.80;2.85;;;12.80;99.90;;;;;;5089801;28;20040;-52
2023/10/04 05:20:45;;;;;;;4.35;1.20;;;12.80;99.90;;;;;;5078033;28;20035;-51
2023/10/04 05:23:11;;;;;;;8.82;1.60;;;12.80;99.90;;;;;;5085270;28;20437;-51
2023/10/04 05:25:37;;;;;;;9.20;2.08;;;12.80;99.90;;;;;;5080080;28;20150;-54
2023/10/04 05:28:11;;;;;;;3.45;1.40;;;12.80;99.90;;;;;;5078113;28;20100;-50
2023/10/04 05:30:38;;;;;;;6.97;2.15;;;12.80;99.90;;;;;;5083246;28;20434;-50
2023/10/04 05:33:04;;;;;;;5.45;1.60;;;12.90;99.90;;;;;;5079637;28;20036;-51
2023/10/04 05:35:30;;;;;;;8.38;2.10;;;12.90;99.90;;;;;;5075097;28;20218;-53
2023/10/04 05:37:55;;;;;;;6.70;1.58;;;12.80;99.90;;;;;;5081804;28;20123;-51
2023/10/04 05:40:27;;;;;;;6.10;1.77;;;12.70;99.90;;;;;;5074637;28;20031;-51
2023/10/04 05:42:56;;;;;;;8.27;2.20;;;12.70;99.90;;;;;;5077786;28;20461;-53
2023/10/04 05:45:23;;;;;;;6.25;2.15;;;12.70;99.90;;;;;;5077695;28;20032;-54
2023/10/04 05:47:50;;;;;;;9.23;2.53;;;12.60;99.90;;;;;;5077759;28;20145;-52
2023/10/04 05:50:18;;;;;;;8.77;2.00;;;12.60;99.90;;;;;;5081779;28;20510;-52
2023/10/04 05:52:51;;;;;;;6.28;2.40;;;12.60;99.90;;;;;;5082641;28;20122;-53
2023/10/04 05:55:18;;;;;;;8.45;2.58;;;12.60;99.90;;;;;;5080445;28;20630;-52
2023/10/04 05:57:50;;;;;;;10.77;2.10;;;12.60;99.90;;;;;;5083278;28;20381;-52
2023/10/04 06:00:33;;;;;;;6.85;1.75;;;12.60;99.90;;;;;;5076088;28;20026;-51
2023/10/04 06:03:03;;;;;;;8.00;2.00;;;12.60;99.90;;;;;;5077192;28;20488;-52
2023/10/04 06:05:28;;;;;;;7.57;2.08;;;12.60;99.90;;;;;;5077270;28;20042;-51
2023/10/04 06:07:55;;;;;;;7.35;1.88;;;12.60;99.90;;;;;;5080884;28;20020;-54
2023/10/04 06:10:23;;;;;;;7.10;1.70;;;12.60;99.90;;;;;;5080468;28;20028;-51
2023/10/04 06:12:51;;;;;;;8.23;1.73;;;12.60;99.90;;;;;;5038575;28;20032;-54
2023/10/04 06:15:18;;;;;;;7.38;1.30;;;12.60;99.90;;;;;;5058908;28;20048;-51
2023/10/04 06:17:52;;;;;;;5.38;1.33;;;12.60;99.90;;;;;;5079129;28;20116;-54
2023/10/04 06:20:24;;;;;;;9.45;1.70;;;12.50;99.90;;;;;;5076508;28;20036;-54
2023/10/04 06:22:56;;;;;;;3.83;1.40;;;12.60;99.90;;;;;;5088877;28;20050;-51
2023/10/04 06:25:23;;;;;;;7.20;1.60;;;12.60;99.90;;;;;;5081733;28;20028;-52
2023/10/04 06:27:54;;;;;;;7.93;1.77;;;12.50;99.90;;;;;;5083543;28;20034;-54
2023/10/04 06:30:22;;;;;;;7.03;1.60;;;12.50;99.90;;;;;;5084733;28;20024;-54
2023/10/04 06:32:52;;;;;;;11.38;1.50;;;12.60;99.90;;;;;;5073899;28;20024;-51
2023/10/04 06:35:25;;;;;;;4.40;1.08;;;12.60;99.90;;;;;;5075768;28;20047;-49
2023/10/04 06:37:52;;;;;;;7.72;2.40;;;12.70;99.90;;;;;;5080143;28;20081;-47
2023/10/04 06:40:22;;;;;;;8.43;1.70;;;12.70;99.90;;;;;;5080069;28;20036;-47
2023/10/04 06:42:53;;;;;;;2.15;1.08;;;12.70;99.90;;;;;;5078914;28;20036;-51
2023/10/04 06:45:20;;;;;;;6.53;1.58;;;12.80;99.90;;;;;;5076831;28;20115;-49
2023/10/04 06:47:49;;;;;;;10.85;4.40;;;12.80;99.90;;;;;;5079193;28;20025;-48
2023/10/04 06:50:18;;;;;;;15.75;6.70;;;12.80;99.90;;;;;;5080357;28;20124;-47
2023/10/04 06:52:45;;;;;;;9.98;2.25;;;12.90;99.90;;;;;;5084803;28;20024;-48
2023/10/04 06:55:11;;;;;;;5.05;1.38;;;12.90;99.90;;;;;;5080997;28;20042;-49
2023/10/04 06:57:39;;;;;;;8.68;1.48;;;12.90;99.90;;;;;;5077056;28;20031;-52
2023/10/04 07:00:12;;;;;;;6.85;1.60;;;13.00;99.90;;;;;;5080218;28;20035;-54
2023/10/04 07:02:46;;;;;;;7.90;1.70;;;12.90;99.90;;;;;;5080276;28;20434;-53
2023/10/04 07:05:14;;;;;;;5.72;1.90;;;13.00;99.90;;;;;;5078184;28;20143;-51
2023/10/04 07:07:41;;;;;;;5.28;1.30;;;13.00;99.90;;;;;;5080034;28;20858;-52
2023/10/04 07:10:08;;;;;;;14.35;2.28;;;13.10;99.90;;;;;;5082714;28;20032;-50
2023/10/04 07:12:35;;;;;;;10.30;1.80;;;13.20;99.90;;;;;;5079734;28;20039;-50
2023/10/04 07:15:04;;;;;;;6.15;1.77;;;13.20;99.90;;;;;;5047890;28;20082;-50
2023/10/04 07:17:30;;;;;;;6.97;1.40;;;13.30;99.90;;;;;;5083788;28;20059;-52
2023/10/04 07:19:59;;;;;;;4.80;1.70;;;13.30;99.90;;;;;;5073567;28;20493;-52
2023/10/04 07:22:29;;;;;;;9.45;1.60;;;13.30;99.90;;;;;;5079774;28;20036;-50
2023/10/04 07:24:59;;;;;;;4.20;1.58;;;13.30;99.90;;;;;;5063573;28;20074;-53
2023/10/04 07:27:24;;;;;;;5.65;1.77;;;13.30;99.90;;;;;;5062448;28;20112;-53
2023/10/04 07:29:50;;;;;;;10.13;1.75;;;13.50;99.90;;;;;;5078852;28;20013;-51
2023/10/04 07:32:17;;;;;;;6.93;1.52;;;13.60;99.90;;;;;;5072260;28;20481;-52
2023/10/04 07:34:42;;;;;;;3.58;1.10;;;13.70;99.90;;;;;;5074809;28;20102;-50
2023/10/04 07:37:08;;;;;;;7.82;1.75;;;13.70;99.90;;;;;;5078323;28;20489;-51
2023/10/04 07:39:35;;;;;;;5.38;1.70;;;13.80;99.90;;;;;;5075296;28;20091;-52
2023/10/04 07:42:02;;;;;;;7.88;1.55;;;13.90;99.90;;;;;;5085557;28;20031;-53
2023/10/04 07:44:30;;;;;;;5.47;1.90;;;14.00;99.90;;;;;;5085902;28;20058;-50
2023/10/04 07:47:02;;;;;;;22.38;7.97;;;14.00;99.90;;;;;;5085888;28;20024;-53
2023/10/04 07:49:31;;;;;;;24.85;9.88;;;14.10;99.90;;;;;;5083736;28;20352;-50
2023/10/04 07:51:58;;;;;;;;;;;14.20;99.90;;;;;;5088978;28;20024;-51
2023/10/04 07:54:24;;;;;;;14.68;5.85;;;14.30;99.90;;;;;;5085406;28;20330;-50
2023/10/04 07:56:49;;;;;;;7.28;1.70;;;14.40;99.90;;;;;;5082278;28;20117;-51
2023/10/04 07:59:17;;;;;;;4.78;1.80;;;14.40;99.90;;;;;;5062749;28;20191;-52
2023/10/04 08:01:43;;;;;;;10.60;1.90;;;14.60;99.90;;;;;;5083031;28;20497;-49
2023/10/04 08:04:08;;;;;;;8.35;2.35;;;14.60;99.90;;;;;;5089456;28;20119;-50
2023/10/04 08:06:41;;;;;;;5.55;1.50;;;14.60;99.90;;;;;;5085815;28;20123;-51
2023/10/04 08:09:07;;;;;;;7.80;1.73;;;14.60;99.90;;;;;;5082612;28;20039;-49
2023/10/04 08:11:33;;;;;;;7.70;1.80;;;14.70;99.90;;;;;;5068153;28;20104;-49
2023/10/04 08:14:00;;;;;;;5.95;1.55;;;14.80;99.90;;;;;;5087736;28;20032;-50
2023/10/04 08:16:27;;;;;;;8.10;1.95;;;14.80;99.90;;;;;;5086068;28;20028;-53
2023/10/04 08:18:55;;;;;;;5.30;1.40;;;14.90;99.90;;;;;;5085928;28;20052;-54
2023/10/04 08:21:22;;;;;;;6.32;1.80;;;14.90;99.90;;;;;;5087544;28;20041;-54
2023/10/04 08:23:49;;;;;;;7.28;1.65;;;14.90;99.90;;;;;;5084535;28;20028;-52
2023/10/04 08:26:15;;;;;;;10.73;2.10;;;15.00;99.90;;;;;;5087341;28;20029;-50
2023/10/04 08:28:42;;;;;;;5.95;1.77;;;15.00;99.90;;;;;;5081799;28;20028;-52
2023/10/04 08:31:13;;;;;;;7.00;1.73;;;15.10;99.90;;;;;;5085830;28;20039;-54
2023/10/04 08:33:39;;;;;;;6.28;1.92;;;15.20;99.90;;;;;;5091211;28;20131;-54
2023/10/04 08:36:10;;;;;;;7.45;1.63;;;15.20;99.90;;;;;;5088561;28;20087;-53
2023/10/04 08:38:37;;;;;;;7.82;2.08;;;15.40;99.90;;;;;;5090663;28;20503;-51
2023/10/04 08:41:04;;;;;;;7.53;1.95;;;15.50;99.90;;;;;;5079783;28;20023;-50
2023/10/04 08:43:31;;;;;;;5.82;1.73;;;15.60;99.90;;;;;;5087972;28;20500;-54
2023/10/04 08:45:57;;;;;;;8.85;2.47;;;15.60;99.90;;;;;;5090844;28;20035;-54
2023/10/04 08:48:25;;;;;;;9.38;2.95;;;15.70;99.90;;;;;;5060183;28;20024;-50
2023/10/04 08:51:20;;;;;;;3.45;1.38;;;15.80;99.90;;;;;;5087899;28;20040;-53
2023/10/04 08:54:12;;;;;;;4.60;1.67;;;15.90;99.90;;;;;;5081864;28;20035;-50
2023/10/04 08:56:51;;;;;;;8.43;1.98;;;16.00;99.90;;;;;;5082059;28;20477;-53
2023/10/04 08:59:18;;;;;;;9.35;1.77;;;16.20;99.90;;;;;;5080706;28;20024;-53
2023/10/04 09:01:46;;;;;;;5.35;1.60;;;16.20;99.90;;;;;;5067420;28;20372;-53
2023/10/04 09:04:15;;;;;;;7.35;1.80;;;16.20;99.90;;;;;;5084298;28;20086;-51
2023/10/04 09:06:42;;;;;;;8.68;2.38;;;16.30;99.90;;;;;;5090305;28;20028;-52
2023/10/04 09:09:15;;;;;;;7.68;1.80;;;16.40;99.90;;;;;;5085763;28;20505;-51
2023/10/04 09:11:41;;;;;;;8.85;2.00;;;16.50;99.90;;;;;;5086063;28;20035;-54
2023/10/04 09:14:08;;;;;;;10.25;1.80;;;16.50;99.90;;;;;;5064713;28;20067;-53
2023/10/04 09:16:34;;;;;;;5.47;1.50;;;16.50;99.90;;;;;;5088189;28;20028;-54
2023/10/04 09:19:03;;;;;;;6.05;1.80;;;16.60;99.90;;;;;;5085175;28;20089;-51
2023/10/04 09:21:30;;;;;;;5.65;1.70;;;16.70;99.90;;;;;;5090662;28;20032;-49
2023/10/04 09:24:08;;;;;;;12.10;3.05;;;16.70;99.90;;;;;;5089670;28;20495;-47
2023/10/04 09:26:34;;;;;;;12.98;3.67;;;16.70;99.90;;;;;;5082064;28;20032;-47
2023/10/04 09:29:00;;;;;;;9.75;3.28;;;16.80;99.90;;;;;;5078995;28;20063;-52
2023/10/04 09:31:26;;;;;;;10.27;3.67;;;17.00;99.90;;;;;;5084175;28;20046;-52
2023/10/04 09:33:52;;;;;;;12.10;3.67;;;17.00;99.90;;;;;;5087432;28;20532;-53
2023/10/04 09:36:33;;;;;;;10.00;2.85;;;17.00;99.90;;;;;;5086707;28;20035;-53
2023/10/04 09:39:13;;;;;;;6.05;2.22;;;17.00;99.90;;;;;;5087235;28;20135;-52
2023/10/04 09:41:41;;;;;;;6.68;1.90;;;17.00;99.90;;;;;;5085828;28;20100;-53
2023/10/04 09:44:25;;;;;;;8.38;1.55;;;16.90;99.90;;;;;;5068469;28;20063;-54
2023/10/04 09:47:01;;;;;;;9.65;1.75;;;17.10;99.90;;;;;;5080324;28;20031;-53
2023/10/04 09:49:31;;;;;;;7.80;2.28;;;17.20;99.90;;;;;;5080155;28;20024;-54
2023/10/04 09:52:00;;;;;;;8.18;1.80;;;17.20;99.90;;;;;;5087525;28;20028;-54
2023/10/04 09:54:27;;;;;;;5.93;1.50;;;17.30;99.90;;;;;;5085644;28;20028;-49
2023/10/04 09:56:55;;;;;;;4.32;1.38;;;17.40;99.90;;;;;;5088405;28;20028;-52
2023/10/04 09:59:22;;;;;;;4.60;1.80;;;17.50;99.90;;;;;;5085400;28;20024;-52
2023/10/04 10:01:57;;;;;;;7.13;1.55;;;17.60;99.90;;;;;;5087555;28;20101;-52
2023/10/04 10:04:28;;;;;;;8.00;1.83;;;17.60;99.90;;;;;;5089128;28;20119;-53
2023/10/04 10:07:10;;;;;;;10.52;1.63;;;17.60;99.90;;;;;;5088697;28;20048;-53
2023/10/04 10:10:16;;;;;;;4.28;1.45;;;17.60;99.90;;;;;;5081840;28;20103;-51
2023/10/04 10:12:43;;;;;;;6.50;1.65;;;17.50;99.90;;;;;;5082925;28;20028;-52
2023/10/04 10:15:11;;;;;;;7.72;2.13;;;17.50;99.90;;;;;;5069138;28;20024;-49
2023/10/04 10:17:40;;;;;;;6.57;1.37;;;17.50;99.90;;;;;;5087528;28;20032;-51
2023/10/04 10:20:09;;;;;;;2.40;1.00;;;17.50;99.90;;;;;;5086267;28;20059;-53
2023/10/04 10:22:55;;;;;;;7.25;1.75;;;17.50;99.90;;;;;;5080667;28;20035;-53
2023/10/04 10:25:22;;;;;;;7.80;1.83;;;17.60;99.90;;;;;;5068286;28;20549;-52
2023/10/04 10:27:47;;;;;;;7.85;1.60;;;17.60;99.90;;;;;;5081060;28;20031;-52
2023/10/04 10:30:16;;;;;;;5.95;1.95;;;17.70;99.90;;;;;;5086913;28;20104;-53
2023/10/04 10:32:54;;;;;;;5.25;1.38;;;17.80;99.90;;;;;;5082170;28;20090;-52
2023/10/04 10:38:31;;;;;;;6.18;1.45;;;17.90;99.90;;;;;;5074895;28;20491;-51
2023/10/04 10:40:56;;;;;;;6.93;1.67;;;17.90;99.90;;;;;;5087829;28;20020;-53
2023/10/04 10:43:22;;;;;;;6.40;1.55;;;18.00;99.90;;;;;;5087740;28;20499;-54
2023/10/04 10:45:47;;;;;;;5.35;1.50;;;18.20;99.90;;;;;;5089151;28;20024;-54
2023/10/04 10:48:14;;;;;;;7.88;1.65;;;18.40;99.90;;;;;;5084295;28;20159;-53
2023/10/04 10:50:41;;;;;;;5.68;1.40;;;18.40;99.90;;;;;;5058657;28;20100;-53
2023/10/04 10:53:11;;;;;;;7.35;1.88;;;18.30;99.90;;;;;;5078018;28;20040;-54
2023/10/04 10:55:39;;;;;;;5.03;1.60;;;18.30;99.90;;;;;;5089184;28;20024;-53
2023/10/04 10:58:09;;;;;;;5.60;1.30;;;18.40;99.90;;;;;;5086118;28;20036;-53
2023/10/04 11:00:37;;;;;;;5.35;1.50;;;18.50;99.90;;;;;;5082724;28;20029;-53
2023/10/04 11:03:10;;;;;;;4.43;1.45;;;18.50;99.90;;;;;;5086322;28;20481;-55
2023/10/04 11:05:36;;;;;;;6.78;1.50;;;18.40;99.90;;;;;;5087283;28;20031;-54
2023/10/04 11:08:06;;;;;;;7.93;1.58;;;18.60;99.90;;;;;;5087213;28;20027;-50
2023/10/04 11:10:34;;;;;;;5.25;1.27;;;18.70;99.90;;;;;;5082637;28;20020;-51
2023/10/04 11:13:08;;;;;;;5.03;1.25;;;18.70;99.90;;;;;;5087465;28;20492;-53
2023/10/04 11:15:33;;;;;;;6.72;1.48;;;18.70;99.90;;;;;;5087444;28;20036;-53
2023/10/04 11:18:00;;;;;;;9.77;1.50;;;18.80;99.90;;;;;;5061029;28;20047;-53
2023/10/04 11:20:30;;;;;;;6.30;1.23;;;18.80;99.90;;;;;;5088823;28;20441;-54
2023/10/04 11:22:56;;;;;;;6.13;1.50;;;18.80;99.90;;;;;;5087221;28;20482;-52
2023/10/04 11:25:23;;;;;;;8.90;1.50;;;18.80;99.90;;;;;;5080497;28;20062;-54
2023/10/04 11:27:51;;;;;;;7.30;1.63;;;18.90;99.90;;;;;;5063254;28;20052;-50
2023/10/04 11:30:17;;;;;;;9.30;1.58;;;18.70;99.90;;;;;;5086803;28;20020;-53
2023/10/04 11:32:47;;;;;;;6.70;1.60;;;18.60;99.90;;;;;;5083525;28;20059;-52
2023/10/04 11:35:17;;;;;;;7.68;1.92;;;18.50;99.90;;;;;;5086639;28;20111;-52
2023/10/04 11:37:48;;;;;;;6.43;1.63;;;18.50;99.90;;;;;;5090646;28;20112;-53
2023/10/04 11:40:16;;;;;;;5.97;1.52;;;18.50;99.90;;;;;;5091337;28;20086;-52
2023/10/04 11:42:43;;;;;;;4.72;1.50;;;18.50;99.90;;;;;;5073040;28;20032;-50
2023/10/04 11:45:26;;;;;;;4.75;1.30;;;18.60;99.90;;;;;;5090352;28;20055;-53
2023/10/04 11:48:01;;;;;;;6.43;2.13;;;18.60;99.90;;;;;;5079841;28;20473;-51
2023/10/04 11:50:45;;;;;;;6.10;1.45;;;18.60;99.90;;;;;;5071948;28;20078;-55
2023/10/04 11:53:12;;;;;;;6.38;1.88;;;18.50;99.90;;;;;;5088710;28;20115;-54
2023/10/04 11:55:38;;;;;;;7.05;1.92;;;18.40;99.90;;;;;;5085853;28;20052;-54
2023/10/04 11:58:05;;;;;;;6.05;1.67;;;18.40;99.90;;;;;;5080219;28;20452;-55
2023/10/04 12:00:32;;;;;;;6.95;1.50;;;18.40;99.90;;;;;;5090970;28;20095;-51
2023/10/04 12:02:59;;;;;;;6.72;1.80;;;18.50;99.90;;;;;;5089085;28;20051;-51
2023/10/04 12:05:25;;;;;;;6.60;1.73;;;18.60;99.90;;;;;;5082141;28;20175;-51
2023/10/04 12:07:51;;;;;;;5.22;1.90;;;18.60;99.90;;;;;;5078921;28;20401;-54
2023/10/04 12:10:18;;;;;;;8.27;2.20;;;18.60;99.90;;;;;;5090015;28;20171;-54
2023/10/04 12:12:45;;;;;;;4.43;1.30;;;18.60;99.90;;;;;;5091476;28;20360;-53
2023/10/04 12:15:11;;;;;;;5.38;1.65;;;18.50;99.90;;;;;;5091557;28;20040;-54
2023/10/04 12:17:37;;;;;;;9.38;1.83;;;18.40;99.90;;;;;;5091854;28;20030;-52
2023/10/04 12:20:07;;;;;;;8.88;2.03;;;18.40;99.90;;;;;;5091379;28;20089;-52
2023/10/04 12:22:32;;;;;;;5.15;1.60;;;18.40;99.90;;;;;;5060042;28;20391;-53
2023/10/04 12:25:01;;;;;;;7.88;1.92;;;18.40;99.90;;;;;;5088072;28;20032;-51
2023/10/04 12:27:27;;;;;;;7.32;1.77;;;18.40;99.90;;;;;;5079799;28;20063;-51
2023/10/04 12:29:52;;;;;;;9.20;1.83;;;18.40;99.90;;;;;;5078627;28;20034;-53
2023/10/04 12:32:19;;;;;;;10.07;2.85;;;18.30;99.90;;;;;;5088382;28;20115;-50
2023/10/04 12:34:45;;;;;;;8.25;2.30;;;18.40;99.90;;;;;;5086170;28;20369;-51
2023/10/04 12:37:12;;;;;;;5.60;1.90;;;18.30;99.90;;;;;;5073191;28;20033;-54
2023/10/04 12:39:38;;;;;;;7.75;2.35;;;18.20;99.90;;;;;;5079722;28;20020;-51
2023/10/04 12:42:04;;;;;;;6.82;2.47;;;18.20;99.90;;;;;;5080254;28;20510;-53
2023/10/04 12:44:30;;;;;;;7.43;1.92;;;18.00;99.90;;;;;;5083414;28;20051;-54
2023/10/04 12:46:58;;;;;;;9.02;2.30;;;18.00;99.90;;;;;;5084503;28;20024;-52
2023/10/04 12:49:24;;;;;;;8.90;1.98;;;18.00;99.90;;;;;;5073158;28;20031;-54
2023/10/04 12:51:50;;;;;;;6.75;1.80;;;18.10;99.90;;;;;;5090140;28;20028;-52
2023/10/04 12:54:18;;;;;;;8.27;1.92;;;18.10;99.90;;;;;;5090635;28;20051;-52
2023/10/04 12:56:50;;;;;;;11.48;2.15;;;18.10;99.90;;;;;;5076479;28;20032;-52
2023/10/04 12:59:16;;;;;;;7.15;2.00;;;18.10;99.90;;;;;;5076194;28;20032;-52